Time;durP1;ratioP1;P1;durP2;ratioP2;P2;SDS_P1;SDS_P2;PMS_P1;PMS_P2;Temp;Humidity;BMP_temperature;BMP_pressure;BME280_temperature;BME280_humidity;BME280_pressure;Samples;Min_cycle;Max_cycle;Signal;HPM_P1;HPM_P2
2023/09/27 00:01:02;;;;;;;4.53;2.17;;;;;;;;;;5066090;28;20255;-39
2023/09/27 00:03:29;;;;;;;4.78;2.40;;;;;;;;;;5066216;28;20028;-42
2023/09/27 00:05:55;;;;;;;8.68;5.03;;;;;;;;;;5066377;28;20040;-46
2023/09/27 00:08:22;;;;;;;8.27;5.97;;;;;;;;;;5066141;28;20040;-46
2023/09/27 00:10:50;;;;;;;6.13;5.38;;;;;;;;;;5066566;28;20062;-43
2023/09/27 00:13:17;;;;;;;11.55;5.07;;;;;;;;;;5066256;28;20088;-44
2023/09/27 00:15:44;;;;;;;5.68;5.10;;;;;;;;;;5065763;28;20032;-49
2023/09/27 00:18:11;;;;;;;7.25;5.90;;;;;;;;;;5066201;28;20025;-50
2023/09/27 00:20:38;;;;;;;8.20;5.95;;;;;;;;;;5066263;28;20025;-43
2023/09/27 00:23:05;;;;;;;9.65;5.20;;;;;;;;;;5065771;28;20089;-47
2023/09/27 00:25:33;;;;;;;5.40;3.92;;;;;;;;;;5065982;28;20082;-45
2023/09/27 00:28:00;;;;;;;6.85;3.60;;;;;;;;;;5065969;28;20341;-45
2023/09/27 00:30:27;;;;;;;5.60;3.55;;;;;;;;;;5065899;28;20110;-46
2023/09/27 00:32:53;;;;;;;4.03;3.00;;;;;;;;;;5065894;28;20036;-47
2023/09/27 00:35:22;;;;;;;8.13;2.97;;;;;;;;;;5065916;28;20048;-41
2023/09/27 00:37:50;;;;;;;4.22;2.75;;;;;;;;;;5065576;28;20017;-48
2023/09/27 00:40:18;;;;;;;3.22;2.33;;;;;;;;;;5065776;28;20025;-45
2023/09/27 00:42:47;;;;;;;4.07;2.50;;;;;;;;;;5065527;28;20035;-47
2023/09/27 00:45:14;;;;;;;4.68;2.42;;;;;;;;;;5065482;28;20132;-44
2023/09/27 00:47:42;;;;;;;6.72;2.78;;;;;;;;;;5065489;28;20031;-50
2023/09/27 00:50:09;;;;;;;7.55;3.08;;;;;;;;;;5065525;28;20021;-47
2023/09/27 00:52:36;;;;;;;13.63;7.95;;;;;;;;;;5065132;28;20356;-47
2023/09/27 00:55:03;;;;;;;8.43;6.40;;;;;;;;;;5065538;28;20025;-45
2023/09/27 00:57:30;;;;;;;10.60;6.78;;;;;;;;;;5065384;28;20041;-46
2023/09/27 00:59:57;;;;;;;11.10;9.45;;;;;;;;;;5065107;28;20044;-44
2023/09/27 01:02:24;;;;;;;6.47;5.38;;;;;;;;;;5065239;28;20196;-40
2023/09/27 01:04:51;;;;;;;7.68;4.82;;;;;;;;;;5065198;28;20028;-44
2023/09/27 01:07:18;;;;;;;5.57;3.95;;;;;;;;;;5064819;28;20040;-40
2023/09/27 01:09:45;;;;;;;7.93;6.43;;;;;;;;;;5065082;28;20016;-42
2023/09/27 01:12:11;;;;;;;8.13;4.50;;;;;;;;;;5063794;28;20036;-54
2023/09/27 01:14:38;;;;;;;6.38;3.30;;;;;;;;;;5057224;28;20017;-39
2023/09/27 01:17:09;;;;;;;7.47;2.47;;;;;;;;;;5047986;28;20037;-45
2023/09/27 01:19:36;;;;;;;21.88;3.20;;;;;;;;;;5045046;28;20029;-42
2023/09/27 01:22:03;;;;;;;14.40;2.90;;;;;;;;;;5045432;28;20250;-45
2023/09/27 01:24:30;;;;;;;13.35;4.80;;;;;;;;;;5045104;28;20026;-39
2023/09/27 01:26:58;;;;;;;11.52;7.45;;;;;;;;;;5043808;28;20253;-46
2023/09/27 01:29:25;;;;;;;9.90;4.88;;;;;;;;;;5055072;28;20313;-52
2023/09/27 01:31:52;;;;;;;6.38;3.53;;;;;;;;;;5056227;28;20025;-51
2023/09/27 01:34:18;;;;;;;6.47;2.78;;;;;;;;;;5064656;28;20075;-39
2023/09/27 01:36:45;;;;;;;3.90;2.95;;;;;;;;;;5064906;28;20025;-46
2023/09/27 01:39:12;;;;;;;6.32;3.30;;;;;;;;;;5064710;28;20260;-42
2023/09/27 01:41:39;;;;;;;7.95;3.00;;;;;;;;;;5064915;28;20075;-49
2023/09/27 01:44:06;;;;;;;8.05;3.22;;;;;;;;;;5064324;28;20024;-39
2023/09/27 01:46:33;;;;;;;7.13;3.63;;;;;;;;;;5064417;28;20086;-42
2023/09/27 01:49:00;;;;;;;10.73;3.17;;;;;;;;;;5062488;28;20266;-40
2023/09/27 01:51:27;;;;;;;5.85;4.07;;;;;;;;;;5052896;28;20271;-41
2023/09/27 01:53:53;;;;;;;4.10;2.35;;;;;;;;;;5044363;28;20022;-39
2023/09/27 01:56:20;;;;;;;7.13;2.35;;;;;;;;;;5044821;28;20029;-40
2023/09/27 01:58:46;;;;;;;11.68;2.80;;;;;;;;;;5044274;28;20067;-39
2023/09/27 02:01:13;;;;;;;4.95;2.33;;;;;;;;;;5044693;28;20104;-40
2023/09/27 02:03:42;;;;;;;5.57;1.95;;;;;;;;;;5044148;28;20033;-40
2023/09/27 02:06:09;;;;;;;6.75;2.30;;;;;;;;;;5044382;28;20228;-36
2023/09/27 02:08:35;;;;;;;11.52;8.02;;;;;;;;;;5044359;28;20023;-45
2023/09/27 02:11:02;;;;;;;4.68;3.08;;;;;;;;;;5043681;28;20037;-46
2023/09/27 02:13:29;;;;;;;6.82;5.38;;;;;;;;;;5043510;28;20088;-51
2023/09/27 02:15:56;;;;;;;15.75;14.05;;;;;;;;;;5046799;28;20193;-41
2023/09/27 02:18:23;;;;;;;16.60;10.77;;;;;;;;;;5055656;28;20313;-42
2023/09/27 02:20:49;;;;;;;12.23;6.78;;;;;;;;;;5065770;28;20028;-49
2023/09/27 02:23:16;;;;;;;9.38;6.72;;;;;;;;;;5070216;28;20034;-44
2023/09/27 02:25:42;;;;;;;3.03;2.65;;;;;;;;;;5079727;28;20052;-48
2023/09/27 02:28:10;;;;;;;3.63;2.63;;;;;;;;;;5060351;28;20017;-40
2023/09/27 02:30:37;;;;;;;5.20;3.20;;;;;;;;;;5063866;28;20088;-51
2023/09/27 02:33:03;;;;;;;24.38;3.65;;;;;;;;;;5063503;28;20032;-46
2023/09/27 02:35:30;;;;;;;14.27;12.88;;;;;;;;;;5063807;28;20024;-42
2023/09/27 02:37:57;;;;;;;18.38;15.93;;;;;;;;;;5061990;28;20032;-45
2023/09/27 02:40:23;;;;;;;8.50;7.30;;;;;;;;;;5069147;28;20066;-47
2023/09/27 02:42:50;;;;;;;5.05;4.13;;;;;;;;;;5072161;28;20028;-42
2023/09/27 02:45:17;;;;;;;4.63;3.40;;;;;;;;;;5063638;28;20020;-41
2023/09/27 02:47:44;;;;;;;5.45;2.67;;;;;;;;;;5059909;28;20032;-42
2023/09/27 02:50:11;;;;;;;3.05;2.53;;;;;;;;;;5062354;28;20029;-42
2023/09/27 02:52:39;;;;;;;20.42;18.52;;;;;;;;;;5061897;28;20045;-44
2023/09/27 02:55:08;;;;;;;13.35;11.95;;;;;;;;;;5057954;28;20028;-42
2023/09/27 02:57:35;;;;;;;8.45;6.22;;;;;;;;;;5058456;28;20067;-40
2023/09/27 03:00:03;;;;;;;6.18;3.17;;;;;;;;;;5054302;28;20138;-40
2023/09/27 03:02:33;;;;;;;5.90;4.55;;;;;;;;;;5063404;28;20035;-39
2023/09/27 03:05:00;;;;;;;6.03;3.22;;;;;;;;;;5062185;28;20331;-39
2023/09/27 03:07:27;;;;;;;6.35;3.13;;;;;;;;;;5059929;28;20040;-44
2023/09/27 03:09:54;;;;;;;8.70;3.03;;;;;;;;;;5053093;28;20029;-38
2023/09/27 03:12:21;;;;;;;7.55;2.72;;;;;;;;;;5066150;28;20095;-43
2023/09/27 03:14:48;;;;;;;4.78;2.58;;;;;;;;;;5066908;28;20201;-40
2023/09/27 03:17:14;;;;;;;5.78;2.90;;;;;;;;;;5063427;28;20048;-40
2023/09/27 03:19:41;;;;;;;5.68;2.05;;;;;;;;;;5063186;28;20029;-40
2023/09/27 03:22:08;;;;;;;2.60;2.35;;;;;;;;;;5063258;28;20028;-41
2023/09/27 03:24:34;;;;;;;5.53;2.15;;;;;;;;;;5063153;28;20033;-49
2023/09/27 03:27:04;;;;;;;4.35;2.22;;;;;;;;;;5062973;28;20036;-43
2023/09/27 03:29:31;;;;;;;5.38;2.03;;;;;;;;;;5063480;28;20033;-48
2023/09/27 03:31:58;;;;;;;10.15;2.05;;;;;;;;;;5063614;28;20092;-45
2023/09/27 03:34:25;;;;;;;6.75;2.60;;;;;;;;;;5063266;28;20209;-46
2023/09/27 03:37:00;;;;;;;7.53;2.83;;;;;;;;;;5063563;28;20029;-49
2023/09/27 03:39:28;;;;;;;4.35;2.25;;;;;;;;;;5063203;28;20033;-48
2023/09/27 03:41:55;;;;;;;3.30;2.47;;;;;;;;;;5063477;28;20025;-47
2023/09/27 03:44:22;;;;;;;7.25;2.42;;;;;;;;;;5063053;28;20082;-45
2023/09/27 03:46:48;;;;;;;5.30;1.95;;;;;;;;;;5063493;28;20415;-47
2023/09/27 03:49:15;;;;;;;5.13;2.20;;;;;;;;;;5063074;28;20087;-46
2023/09/27 03:51:41;;;;;;;6.15;2.60;;;;;;;;;;5066487;28;20029;-47
2023/09/27 03:54:08;;;;;;;5.07;3.33;;;;;;;;;;5066636;28;20020;-51
2023/09/27 03:56:38;;;;;;;6.90;3.47;;;;;;;;;;5066913;28;20301;-38
2023/09/27 03:59:05;;;;;;;5.60;3.53;;;;;;;;;;5066723;28;20221;-38
2023/09/27 04:01:31;;;;;;;6.32;3.83;;;;;;;;;;5066772;28;20297;-42
2023/09/27 04:03:58;;;;;;;6.25;3.75;;;;;;;;;;5066233;28;20033;-40
2023/09/27 04:06:25;;;;;;;5.40;3.30;;;;;;;;;;5066578;28;20039;-45
2023/09/27 04:08:52;;;;;;;9.27;3.53;;;;;;;;;;5066351;28;20021;-45
2023/09/27 04:11:20;;;;;;;6.78;3.95;;;;;;;;;;5066535;28;20196;-45
2023/09/27 04:13:48;;;;;;;8.45;4.60;;;;;;;;;;5066314;28;20355;-42
2023/09/27 04:16:15;;;;;;;11.10;5.78;;;;;;;;;;5066043;28;20032;-44
2023/09/27 04:18:42;;;;;;;12.75;5.53;;;;;;;;;;5066088;28;20036;-46
2023/09/27 04:21:09;;;;;;;8.57;5.28;;;;;;;;;;5066266;28;20075;-53
2023/09/27 04:23:37;;;;;;;11.80;5.72;;;;;;;;;;5065990;28;20088;-45
2023/09/27 04:26:07;;;;;;;11.13;6.05;;;;;;;;;;5065757;28;20406;-43
2023/09/27 04:28:34;;;;;;;9.68;6.15;;;;;;;;;;5066047;28;20056;-46
2023/09/27 04:31:01;;;;;;;11.77;6.70;;;;;;;;;;5066139;28;20257;-49
2023/09/27 04:33:29;;;;;;;9.00;6.13;;;;;;;;;;5065785;28;20212;-42
2023/09/27 04:35:55;;;;;;;14.95;7.57;;;;;;;;;;5066132;28;20297;-40
2023/09/27 04:38:22;;;;;;;14.45;8.25;;;;;;;;;;5065812;28;20017;-51
2023/09/27 04:40:49;;;;;;;13.25;8.15;;;;;;;;;;5071232;28;20029;-52
2023/09/27 04:43:16;;;;;;;12.15;7.30;;;;;;;;;;5065678;28;20028;-50
2023/09/27 04:45:42;;;;;;;11.88;6.57;;;;;;;;;;5065423;28;20020;-50
2023/09/27 04:48:09;;;;;;;12.57;6.75;;;;;;;;;;5076780;28;20020;-44
2023/09/27 04:50:36;;;;;;;11.32;5.50;;;;;;;;;;5085690;28;20037;-43
2023/09/27 04:53:03;;;;;;;8.88;5.28;;;;;;;;;;5085412;28;20305;-38
2023/09/27 04:55:30;;;;;;;7.55;4.55;;;;;;;;;;5085591;28;20087;-44
2023/09/27 04:57:57;;;;;;;5.80;4.10;;;;;;;;;;5072772;28;20044;-45
2023/09/27 05:00:24;;;;;;;7.60;3.90;;;;;;;;;;5065222;28;20252;-48
2023/09/27 05:02:51;;;;;;;10.38;3.50;;;;;;;;;;5069657;28;20029;-46
2023/09/27 05:05:18;;;;;;;6.88;2.70;;;;;;;;;;5065533;28;20044;-41
2023/09/27 05:07:45;;;;;;;4.18;2.72;;;;;;;;;;5065252;28;20351;-42
2023/09/27 05:10:12;;;;;;;6.30;2.40;;;;;;;;;;5065279;28;20017;-52
2023/09/27 05:12:39;;;;;;;5.53;2.22;;;;;;;;;;5065034;28;20096;-41
2023/09/27 05:15:07;;;;;;;4.32;2.30;;;;;;;;;;5065076;28;20021;-48
2023/09/27 05:17:35;;;;;;;6.75;1.90;;;;;;;;;;5065074;28;20095;-47
2023/09/27 05:20:06;;;;;;;4.15;2.40;;;;;;;;;;5064949;28;20096;-48
2023/09/27 05:22:33;;;;;;;6.13;2.03;;;;;;;;;;5064904;28;20325;-47
2023/09/27 05:25:00;;;;;;;4.50;2.10;;;;;;;;;;5064810;28;20024;-40
2023/09/27 05:27:27;;;;;;;4.68;2.28;;;;;;;;;;5065026;28;20045;-46
2023/09/27 05:29:54;;;;;;;4.68;2.00;;;;;;;;;;5064908;28;20017;-49
2023/09/27 05:32:20;;;;;;;5.97;2.30;;;;;;;;;;5064328;28;20025;-45
2023/09/27 05:34:47;;;;;;;4.45;1.95;;;;;;;;;;5062942;28;20317;-45
2023/09/27 05:37:14;;;;;;;4.38;2.17;;;;;;;;;;5068860;28;20315;-48
2023/09/27 05:39:41;;;;;;;5.63;2.92;;;;;;;;;;5082991;28;20032;-48
2023/09/27 05:42:08;;;;;;;5.32;2.85;;;;;;;;;;5082799;28;20036;-46
2023/09/27 05:44:35;;;;;;;6.93;2.72;;;;;;;;;;5082894;28;20331;-43
2023/09/27 05:47:01;;;;;;;4.63;2.25;;;;;;;;;;5082715;28;20335;-43
2023/09/27 05:49:31;;;;;;;4.00;2.08;;;;;;;;;;5082644;28;20024;-43
2023/09/27 05:51:57;;;;;;;3.13;1.83;;;;;;;;;;5083177;28;20021;-44
2023/09/27 05:54:24;;;;;;;2.97;1.60;;;;;;;;;;5082666;28;20084;-43
2023/09/27 05:56:54;;;;;;;3.65;1.65;;;;;;;;;;5071273;28;20305;-47
2023/09/27 05:59:21;;;;;;;3.17;1.60;;;;;;;;;;5064430;28;20350;-44
2023/09/27 06:01:48;;;;;;;3.92;1.60;;;;;;;;;;5064743;28;20029;-46
2023/09/27 06:04:15;;;;;;;3.22;1.50;;;;;;;;;;5064173;28;20035;-52
2023/09/27 06:06:42;;;;;;;4.90;1.40;;;;;;;;;;5082883;28;20021;-50
2023/09/27 06:09:11;;;;;;;3.58;1.73;;;;;;;;;;5084279;28;20051;-51
2023/09/27 06:11:38;;;;;;;3.38;1.58;;;;;;;;;;5084574;28;20380;-45
2023/09/27 06:14:11;;;;;;;2.55;1.48;;;;;;;;;;5083732;28;20040;-40
2023/09/27 06:16:38;;;;;;;4.68;1.30;;;;;;;;;;5084430;28;20182;-41
2023/09/27 06:19:05;;;;;;;3.83;1.40;;;;;;;;;;5084160;28;20259;-46
2023/09/27 06:21:32;;;;;;;2.45;1.58;;;;;;;;;;5084471;28;20084;-49
2023/09/27 06:23:59;;;;;;;3.08;1.60;;;;;;;;;;5083943;28;20303;-47
2023/09/27 06:26:26;;;;;;;3.90;1.58;;;;;;;;;;5083756;28;20247;-45
2023/09/27 06:28:53;;;;;;;4.78;1.58;;;;;;;;;;5084133;28;20024;-41
2023/09/27 06:31:21;;;;;;;4.03;1.38;;;;;;;;;;5068666;28;20317;-51
2023/09/27 06:33:48;;;;;;;2.58;1.40;;;;;;;;;;5063789;28;20363;-50
2023/09/27 06:36:16;;;;;;;4.05;1.35;;;;;;;;;;5064201;28;20381;-51
2023/09/27 06:38:42;;;;;;;4.65;1.50;;;;;;;;;;5063655;28;20056;-56
2023/09/27 06:41:09;;;;;;;3.53;1.33;;;;;;;;;;5064261;28;20033;-43
2023/09/27 06:43:36;;;;;;;4.35;1.40;;;;;;;;;;5078358;28;20035;-44
2023/09/27 06:46:10;;;;;;;2.35;1.30;;;;;;;;;;5078610;28;20070;-50
2023/09/27 06:48:37;;;;;;;2.40;1.25;;;;;;;;;;5063955;28;20348;-44
2023/09/27 06:51:05;;;;;;;2.47;1.60;;;;;;;;;;5063949;28;20105;-48
2023/09/27 06:53:32;;;;;;;4.30;1.75;;;;;;;;;;5063413;28;20317;-45
2023/09/27 06:55:59;;;;;;;4.45;1.65;;;;;;;;;;5068475;28;20302;-48
2023/09/27 06:58:26;;;;;;;2.45;1.60;;;;;;;;;;5083695;28;20032;-44
2023/09/27 07:00:53;;;;;;;5.70;1.80;;;;;;;;;;5083725;28;20024;-49
2023/09/27 07:03:24;;;;;;;3.00;1.50;;;;;;;;;;5074779;28;20070;-48
2023/09/27 07:05:54;;;;;;;4.45;1.60;;;;;;;;;;5083713;28;20027;-48
2023/09/27 07:08:21;;;;;;;3.38;1.60;;;;;;;;;;5083395;28;20036;-45
2023/09/27 07:10:48;;;;;;;4.72;1.63;;;;;;;;;;5083898;28;20017;-47
2023/09/27 07:13:15;;;;;;;4.00;1.70;;;;;;;;;;5083670;28;20182;-43
2023/09/27 07:15:45;;;;;;;3.17;1.52;;;;;;;;;;5083544;28;20297;-42
2023/09/27 07:18:12;;;;;;;2.45;1.50;;;;;;;;;;5083452;28;20031;-40
2023/09/27 07:20:40;;;;;;;2.60;1.45;;;;;;;;;;5083817;28;20013;-38
2023/09/27 07:23:08;;;;;;;3.38;1.50;;;;;;;;;;5083309;28;20028;-42
2023/09/27 07:25:37;;;;;;;5.10;1.75;;;;;;;;;;5083655;28;20036;-43
2023/09/27 07:28:05;;;;;;;2.55;1.67;;;;;;;;;;5087141;28;20041;-39
2023/09/27 07:30:33;;;;;;;3.72;1.77;;;;;;;;;;5087291;28;20025;-42
2023/09/27 07:33:03;;;;;;;5.22;1.48;;;;;;;;;;5087170;28;20024;-39
2023/09/27 07:35:33;;;;;;;7.15;1.55;;;;;;;;;;5087316;28;20024;-41
2023/09/27 07:38:00;;;;;;;4.50;1.65;;;;;;;;;;5087023;28;20032;-46
2023/09/27 07:40:27;;;;;;;2.67;1.55;;;;;;;;;;5087205;28;20059;-43
2023/09/27 07:42:54;;;;;;;3.63;1.65;;;;;;;;;;5086918;28;20255;-43
2023/09/27 07:45:21;;;;;;;2.67;1.45;;;;;;;;;;5087103;28;20032;-41
2023/09/27 07:47:54;;;;;;;4.15;1.35;;;;;;;;;;5086706;28;20036;-40
2023/09/27 07:50:22;;;;;;;2.50;1.55;;;;;;;;;;5086793;28;20028;-42
2023/09/27 07:52:48;;;;;;;6.68;1.40;;;;;;;;;;5086771;28;20063;-49
2023/09/27 07:55:17;;;;;;;4.22;1.60;;;;;;;;;;5086743;28;20016;-53
2023/09/27 07:57:45;;;;;;;3.00;1.30;;;;;;;;;;5086506;28;20032;-42
2023/09/27 08:00:15;;;;;;;4.82;1.33;;;;;;;;;;5086667;28;20040;-42
2023/09/27 08:02:43;;;;;;;6.75;1.60;;;;;;;;;;5086540;28;20032;-40
2023/09/27 08:05:10;;;;;;;6.68;1.38;;;;;;;;;;5086634;28;20091;-47
2023/09/27 08:07:38;;;;;;;4.95;1.52;;;;;;;;;;5086444;28;20040;-42
2023/09/27 08:10:05;;;;;;;2.15;1.27;;;;;;;;;;5086683;28;20066;-46
2023/09/27 08:12:33;;;;;;;5.35;1.40;;;;;;;;;;5086254;28;20043;-43
2023/09/27 08:15:00;;;;;;;3.70;1.35;;;;;;;;;;5086373;28;20032;-50
2023/09/27 08:17:27;;;;;;;6.50;1.90;;;;;;;;;;5086230;28;20024;-51
2023/09/27 08:19:54;;;;;;;6.43;2.40;;;;;;;;;;5086130;28;20032;-45
2023/09/27 08:22:21;;;;;;;2.72;2.35;;;;;;;;;;5086404;28;20091;-41
2023/09/27 08:24:47;;;;;;;4.38;2.20;;;;;;;;;;5086191;28;20327;-45
2023/09/27 08:27:14;;;;;;;4.00;1.92;;;;;;;;;;5085774;28;20049;-41
2023/09/27 08:29:41;;;;;;;4.95;1.80;;;;;;;;;;5085956;28;20032;-38
2023/09/27 08:32:08;;;;;;;8.40;1.70;;;;;;;;;;5085956;28;20076;-42
2023/09/27 08:34:36;;;;;;;3.50;1.70;;;;;;;;;;5085828;28;20025;-39
2023/09/27 08:37:03;;;;;;;2.35;1.30;;;;;;;;;;5079128;28;20032;-46
2023/09/27 08:39:31;;;;;;;1.75;1.30;;;;;;;;;;5081981;28;20024;-42
2023/09/27 08:42:02;;;;;;;3.50;1.75;;;;;;;;;;5067360;28;20135;-40
2023/09/27 08:44:29;;;;;;;4.55;1.80;;;;;;;;;;5064689;28;20044;-40
2023/09/27 08:46:57;;;;;;;3.22;1.83;;;;;;;;;;5066055;28;20024;-39
2023/09/27 08:49:25;;;;;;;6.13;2.03;;;;;;;;;;5064403;28;20395;-38
2023/09/27 08:51:52;;;;;;;2.35;1.65;;;;;;;;;;5064637;28;20033;-38
2023/09/27 08:54:22;;;;;;;2.63;1.50;;;;;;;;;;5065466;28;20052;-40
2023/09/27 08:56:50;;;;;;;4.22;1.73;;;;;;;;;;5065777;28;20104;-40
2023/09/27 08:59:20;;;;;;;2.90;1.50;;;;;;;;;;5065330;28;20060;-48
2023/09/27 09:01:47;;;;;;;3.22;1.67;;;;;;;;;;5065252;28;20031;-40
2023/09/27 09:04:16;;;;;;;6.22;1.85;;;;;;;;;;5065272;28;20048;-40
2023/09/27 09:06:43;;;;;;;3.03;1.45;;;;;;;;;;5065615;28;20041;-39
2023/09/27 09:09:13;;;;;;;3.70;1.42;;;;;;;;;;5065494;28;20021;-43
2023/09/27 09:11:54;;;;;;;2.53;1.38;;;;;;;;;;5065698;28;20056;-43
2023/09/27 09:14:37;;;;;;;3.92;1.42;;;;;;;;;;5065162;28;20056;-40
2023/09/27 09:17:03;;;;;;;;;;;;;;;;;;5082164;28;20032;-39
2023/09/27 09:19:31;;;;;;;4.95;1.85;;;;;;;;;;5085156;28;20192;-39
2023/09/27 09:22:08;;;;;;;4.47;1.70;;;;;;;;;;5084705;28;20086;-38
2023/09/27 09:24:41;;;;;;;2.65;1.95;;;;;;;;;;5083226;28;20091;-39
2023/09/27 09:27:08;;;;;;;3.08;1.60;;;;;;;;;;5082896;28;20052;-40
2023/09/27 09:29:45;;;;;;;7.40;1.90;;;;;;;;;;5083379;28;20323;-39
2023/09/27 09:32:13;;;;;;;4.97;1.55;;;;;;;;;;5083122;28;20037;-46
2023/09/27 09:34:43;;;;;;;3.10;1.67;;;;;;;;;;5082881;28;20255;-42
2023/09/27 09:37:30;;;;;;;3.20;1.80;;;;;;;;;;5083538;28;20086;-42
2023/09/27 09:40:16;;;;;;;4.57;1.60;;;;;;;;;;5084525;28;20047;-46
2023/09/27 09:42:43;;;;;;;5.55;1.80;;;;;;;;;;5082924;28;20032;-49
2023/09/27 09:45:12;;;;;;;3.13;1.90;;;;;;;;;;5082808;28;20095;-38
2023/09/27 09:47:39;;;;;;;4.25;1.75;;;;;;;;;;5082012;28;20055;-38
2023/09/27 09:50:08;;;;;;;3.92;1.70;;;;;;;;;;5082814;28;20174;-41
2023/09/27 09:52:38;;;;;;;7.90;1.80;;;;;;;;;;5082497;28;20020;-47
2023/09/27 09:55:11;;;;;;;4.55;2.10;;;;;;;;;;5082692;28;20316;-46
2023/09/27 09:57:38;;;;;;;4.47;2.53;;;;;;;;;;5083969;28;20069;-47
2023/09/27 10:00:25;;;;;;;6.18;2.30;;;;;;;;;;5084345;28;20037;-44
2023/09/27 10:02:58;;;;;;;5.43;2.17;;;;;;;;;;5084146;28;20029;-41
2023/09/27 10:05:26;;;;;;;4.35;2.10;;;;;;;;;;5083730;28;20060;-42
2023/09/27 10:07:53;;;;;;;5.68;2.20;;;;;;;;;;5084212;28;20065;-39
2023/09/27 10:10:20;;;;;;;3.15;2.15;;;;;;;;;;5084093;28;20033;-40
2023/09/27 10:12:48;;;;;;;3.75;1.60;;;;;;;;;;5084140;28;20025;-39
2023/09/27 10:15:17;;;;;;;3.60;2.00;;;;;;;;;;5084270;28;20021;-40
2023/09/27 10:17:45;;;;;;;3.55;1.92;;;;;;;;;;5083961;28;20032;-51
2023/09/27 10:20:17;;;;;;;6.65;1.85;;;;;;;;;;5077409;28;20074;-41
2023/09/27 10:22:49;;;;;;;8.45;1.88;;;;;;;;;;5064090;28;20029;-38
2023/09/27 10:25:31;;;;;;;5.00;1.98;;;;;;;;;;5063811;28;20069;-38
2023/09/27 10:28:15;;;;;;;5.15;2.03;;;;;;;;;;5063828;28;20122;-42
2023/09/27 10:30:41;;;;;;;8.98;2.30;;;;;;;;;;5063389;28;20081;-38
2023/09/27 10:33:29;;;;;;;6.75;2.60;;;;;;;;;;5059987;28;20266;-37
2023/09/27 10:36:01;;;;;;;4.93;2.60;;;;;;;;;;5046102;28;20040;-38
2023/09/27 10:38:46;;;;;;;17.52;3.30;;;;;;;;;;5058865;28;20306;-43
2023/09/27 10:41:31;;;;;;;11.48;2.50;;;;;;;;;;5063456;28;20036;-44
2023/09/27 10:43:58;;;;;;;14.98;2.80;;;;;;;;;;5063625;28;20021;-39
2023/09/27 10:46:24;;;;;;;8.02;2.78;;;;;;;;;;5063116;28;20040;-43
2023/09/27 10:49:03;;;;;;;8.35;2.97;;;;;;;;;;5068023;28;20012;-43
2023/09/27 10:51:31;;;;;;;11.85;4.50;;;;;;;;;;5070464;28;20028;-49
2023/09/27 10:53:58;;;;;;;12.30;4.63;;;;;;;;;;5063458;28;20025;-40
2023/09/27 10:56:25;;;;;;;9.63;3.97;;;;;;;;;;5061486;28;20032;-41
2023/09/27 10:58:52;;;;;;;9.05;3.72;;;;;;;;;;5063547;28;20031;-44
2023/09/27 11:01:22;;;;;;;11.20;3.95;;;;;;;;;;5048409;28;20037;-41
2023/09/27 11:03:57;;;;;;;9.18;3.20;;;;;;;;;;5083763;28;20055;-44
2023/09/27 11:06:24;;;;;;;9.57;3.30;;;;;;;;;;5088003;28;20070;-40
2023/09/27 11:08:50;;;;;;;9.70;3.63;;;;;;;;;;5087684;28;20039;-42
2023/09/27 11:11:17;;;;;;;14.75;3.55;;;;;;;;;;5087130;28;20436;-41
2023/09/27 11:13:46;;;;;;;8.77;3.40;;;;;;;;;;5085735;28;20225;-41
2023/09/27 11:16:14;;;;;;;8.20;3.35;;;;;;;;;;5086118;28;20099;-42
2023/09/27 11:18:51;;;;;;;12.38;3.30;;;;;;;;;;5085644;28;20027;-44
2023/09/27 11:21:19;;;;;;;14.45;3.47;;;;;;;;;;5085963;28;20028;-45
2023/09/27 11:23:54;;;;;;;13.68;3.25;;;;;;;;;;5085586;28;20033;-44
2023/09/27 11:26:22;;;;;;;15.18;3.90;;;;;;;;;;5085780;28;20045;-43
2023/09/27 11:29:02;;;;;;;16.30;3.55;;;;;;;;;;5087173;28;20032;-41
2023/09/27 11:31:32;;;;;;;14.95;3.70;;;;;;;;;;5086917;28;20212;-56
2023/09/27 11:34:15;;;;;;;14.88;3.20;;;;;;;;;;5087088;28;20087;-41
2023/09/27 11:36:46;;;;;;;6.47;2.67;;;;;;;;;;5087309;28;20095;-44
2023/09/27 11:39:16;;;;;;;7.00;2.60;;;;;;;;;;5087071;28;20089;-45
2023/09/27 11:41:46;;;;;;;5.88;2.13;;;;;;;;;;5087509;28;20020;-53
2023/09/27 11:44:16;;;;;;;6.13;2.65;;;;;;;;;;5074716;28;20168;-45
2023/09/27 11:46:43;;;;;;;8.38;2.40;;;;;;;;;;5065833;28;20029;-44
2023/09/27 11:49:10;;;;;;;5.95;2.20;;;;;;;;;;5066523;28;20139;-40
2023/09/27 11:51:38;;;;;;;9.30;2.60;;;;;;;;;;5065824;28;20166;-45
2023/09/27 11:54:05;;;;;;;10.30;2.83;;;;;;;;;;5066542;28;20025;-50
2023/09/27 11:56:32;;;;;;;6.43;2.63;;;;;;;;;;5066827;28;20043;-43
2023/09/27 11:58:59;;;;;;;9.48;2.70;;;;;;;;;;5066555;28;20029;-47
2023/09/27 12:01:26;;;;;;;5.70;2.40;;;;;;;;;;5066832;28;20034;-47
2023/09/27 12:03:52;;;;;;;5.57;2.35;;;;;;;;;;5066548;28;20032;-45
2023/09/27 12:06:19;;;;;;;4.38;2.40;;;;;;;;;;5066815;28;20029;-43
2023/09/27 12:08:46;;;;;;;4.78;2.45;;;;;;;;;;5066602;28;20084;-42
2023/09/27 12:11:13;;;;;;;3.95;2.33;;;;;;;;;;5065932;28;20217;-47
2023/09/27 12:13:40;;;;;;;6.78;3.15;;;;;;;;;;5066154;28;20032;-50
2023/09/27 12:16:07;;;;;;;5.47;2.60;;;;;;;;;;5066562;28;20021;-44
2023/09/27 12:18:34;;;;;;;5.93;2.88;;;;;;;;;;5066151;28;20025;-54
2023/09/27 12:21:00;;;;;;;5.75;2.65;;;;;;;;;;5066389;28;20309;-45
2023/09/27 12:23:27;;;;;;;5.68;3.08;;;;;;;;;;5066123;28;20021;-48
2023/09/27 12:25:54;;;;;;;4.78;3.00;;;;;;;;;;5066027;28;20068;-48
2023/09/27 12:28:20;;;;;;;7.05;3.38;;;;;;;;;;5066256;28;20321;-45
2023/09/27 12:30:47;;;;;;;4.75;2.97;;;;;;;;;;5066151;28;20097;-45
2023/09/27 12:33:15;;;;;;;4.47;3.10;;;;;;;;;;5065762;28;20044;-48
2023/09/27 12:35:46;;;;;;;3.53;2.95;;;;;;;;;;5065827;28;20320;-51
2023/09/27 12:38:13;;;;;;;6.75;2.75;;;;;;;;;;5065664;28;20321;-47
2023/09/27 12:40:40;;;;;;;3.85;2.67;;;;;;;;;;5065917;28;20071;-45
2023/09/27 12:43:06;;;;;;;4.68;2.58;;;;;;;;;;5065502;28;20021;-42
2023/09/27 12:45:33;;;;;;;4.57;2.85;;;;;;;;;;5065675;28;20029;-46
2023/09/27 12:48:00;;;;;;;7.78;3.00;;;;;;;;;;5065422;28;20033;-49
2023/09/27 12:50:28;;;;;;;8.88;2.72;;;;;;;;;;5065604;28;20021;-48
2023/09/27 12:52:55;;;;;;;4.18;2.40;;;;;;;;;;5065475;28;20072;-49
2023/09/27 12:55:21;;;;;;;6.40;2.60;;;;;;;;;;5065543;28;20305;-49
2023/09/27 12:57:49;;;;;;;7.32;2.30;;;;;;;;;;5064682;28;20213;-46
2023/09/27 13:00:17;;;;;;;8.38;2.63;;;;;;;;;;5065631;28;20363;-46
2023/09/27 13:02:44;;;;;;;5.65;3.10;;;;;;;;;;5065064;28;20039;-49
2023/09/27 13:05:11;;;;;;;5.47;2.63;;;;;;;;;;5064576;28;20031;-48
2023/09/27 13:07:38;;;;;;;4.82;2.70;;;;;;;;;;5065164;28;20339;-49
2023/09/27 13:10:08;;;;;;;9.48;2.88;;;;;;;;;;5065308;28;20040;-45
2023/09/27 13:12:37;;;;;;;6.15;2.58;;;;;;;;;;5064360;28;20072;-41
2023/09/27 13:15:05;;;;;;;5.07;2.78;;;;;;;;;;5063401;28;20460;-45
2023/09/27 13:17:32;;;;;;;4.43;2.58;;;;;;;;;;5063082;28;20079;-48
2023/09/27 13:19:58;;;;;;;3.53;2.38;;;;;;;;;;5063348;28;20147;-44
2023/09/27 13:22:25;;;;;;;7.18;2.88;;;;;;;;;;5063417;28;20363;-42
2023/09/27 13:24:52;;;;;;;4.05;2.53;;;;;;;;;;5063901;28;20324;-42
2023/09/27 13:27:19;;;;;;;5.80;2.30;;;;;;;;;;5063883;28;20092;-47
2023/09/27 13:29:45;;;;;;;7.10;2.42;;;;;;;;;;5065031;28;20256;-54
2023/09/27 13:32:12;;;;;;;17.85;3.42;;;;;;;;;;5064492;28;20025;-49
2023/09/27 13:34:40;;;;;;;17.83;5.00;;;;;;;;;;5063957;28;20037;-44
2023/09/27 13:37:08;;;;;;;10.13;3.40;;;;;;;;;;5064655;28;20066;-46
2023/09/27 13:39:34;;;;;;;4.55;2.55;;;;;;;;;;5064610;28;20094;-44
2023/09/27 13:42:01;;;;;;;14.45;2.97;;;;;;;;;;5065030;28;20029;-47
2023/09/27 13:44:28;;;;;;;5.30;2.58;;;;;;;;;;5064564;28;20031;-48
2023/09/27 13:46:54;;;;;;;31.13;4.40;;;;;;;;;;5064469;28;20048;-50
2023/09/27 13:49:21;;;;;;;132.98;10.48;;;;;;;;;;5064382;28;20017;-50
2023/09/27 13:51:48;;;;;;;17.92;3.13;;;;;;;;;;5064921;28;20028;-48
2023/09/27 13:54:14;;;;;;;7.85;2.00;;;;;;;;;;5064251;28;20048;-41
2023/09/27 13:56:41;;;;;;;3.17;1.85;;;;;;;;;;5064684;28;20036;-49
2023/09/27 13:59:08;;;;;;;9.55;2.55;;;;;;;;;;5064387;28;20024;-43
2023/09/27 14:01:35;;;;;;;19.45;2.92;;;;;;;;;;5063741;28;20032;-49
2023/09/27 14:04:02;;;;;;;7.00;2.15;;;;;;;;;;5064118;28;20028;-46
2023/09/27 14:06:30;;;;;;;14.48;3.67;;;;;;;;;;5064486;28;20250;-47
2023/09/27 14:08:57;;;;;;;5.60;1.98;;;;;;;;;;5064240;28;20036;-43
2023/09/27 14:11:23;;;;;;;6.95;1.95;;;;;;;;;;5064338;28;20028;-43
2023/09/27 14:13:50;;;;;;;6.05;2.65;;;;;;;;;;5064258;28;20378;-45
2023/09/27 14:16:17;;;;;;;2.92;1.80;;;;;;;;;;5063962;28;20070;-45
2023/09/27 14:18:44;;;;;;;2.72;1.85;;;;;;;;;;5063942;28;20017;-49
2023/09/27 14:21:12;;;;;;;4.80;1.73;;;;;;;;;;5063996;28;20070;-49
2023/09/27 14:23:39;;;;;;;2.40;2.00;;;;;;;;;;5063872;28;20025;-53
2023/09/27 14:26:07;;;;;;;4.05;2.15;;;;;;;;;;5063516;28;20078;-45
2023/09/27 14:28:34;;;;;;;4.90;3.20;;;;;;;;;;5063914;28;20025;-46
2023/09/27 14:31:01;;;;;;;4.25;2.50;;;;;;;;;;5063805;28;20044;-44
2023/09/27 14:33:28;;;;;;;4.53;2.80;;;;;;;;;;5063468;28;20013;-45
2023/09/27 14:35:56;;;;;;;10.07;3.70;;;;;;;;;;5063912;28;20205;-47
2023/09/27 14:38:23;;;;;;;3.97;2.30;;;;;;;;;;5063597;28;20091;-44
2023/09/27 14:40:49;;;;;;;13.15;3.55;;;;;;;;;;5063769;28;20024;-47
2023/09/27 14:43:16;;;;;;;6.38;2.80;;;;;;;;;;5063690;28;20024;-45
2023/09/27 14:45:43;;;;;;;4.35;2.50;;;;;;;;;;5063156;28;20039;-45